createdAt,value
2023-05-18T00:01:14.531Z,3.90
2023-05-18T00:03:42.507Z,6.00
2023-05-18T00:06:10.474Z,3.80
2023-05-18T00:08:37.961Z,5.90
2023-05-18T00:11:05.724Z,4.00
2023-05-18T00:13:33.540Z,4.70
2023-05-18T00:18:28.489Z,3.50
2023-05-18T00:21:02.325Z,5.70
2023-05-18T00:23:33.329Z,4.00
2023-05-18T00:26:01.561Z,4.80
2023-05-18T00:28:28.986Z,5.10
2023-05-18T00:30:56.483Z,5.70
2023-05-18T00:33:23.651Z,9.60
2023-05-18T00:35:50.826Z,4.30
2023-05-18T00:38:18.377Z,4.20
2023-05-18T00:40:45.659Z,4.00
2023-05-18T00:43:13.022Z,4.30
2023-05-18T00:45:40.078Z,4.50
2023-05-18T00:48:07.427Z,4.90
2023-05-18T00:50:35.238Z,6.20
2023-05-18T00:53:02.415Z,3.90
2023-05-18T00:55:29.673Z,4.90
2023-05-18T00:57:57.152Z,4.10
2023-05-18T01:00:24.522Z,4.30
2023-05-18T01:02:53.205Z,4.00
2023-05-18T01:05:22.449Z,8.10
2023-05-18T01:07:50.658Z,4.20
2023-05-18T01:10:19.081Z,4.30
2023-05-18T01:13:04.464Z,4.60
2023-05-18T01:15:37.497Z,6.80
2023-05-18T01:18:43.798Z,4.80
2023-05-18T01:21:19.346Z,4.10
2023-05-18T01:24:05.196Z,6.00
2023-05-18T01:26:37.853Z,4.00
2023-05-18T01:29:10.210Z,4.00
2023-05-18T01:31:37.336Z,4.30
2023-05-18T01:34:04.569Z,6.30
2023-05-18T01:36:32.094Z,4.30
2023-05-18T01:39:01.838Z,4.50
2023-05-18T01:41:30.415Z,5.30
2023-05-18T01:44:12.721Z,4.40
2023-05-18T01:46:49.071Z,4.00
2023-05-18T01:49:19.362Z,4.50
2023-05-18T01:51:46.770Z,4.60
2023-05-18T01:54:16.282Z,4.20
2023-05-18T01:56:43.409Z,4.00
2023-05-18T01:59:11.053Z,3.70
2023-05-18T02:01:38.267Z,4.10
2023-05-18T02:04:10.229Z,4.80
2023-05-18T02:06:37.714Z,4.20
2023-05-18T02:09:05.780Z,5.80
2023-05-18T02:11:33.601Z,4.40
2023-05-18T02:14:01.705Z,3.90
2023-05-18T02:16:28.884Z,4.50
2023-05-18T02:18:56.368Z,4.30
2023-05-18T02:21:23.576Z,3.80
2023-05-18T02:23:50.729Z,5.00
2023-05-18T02:26:17.904Z,4.30
2023-05-18T02:28:52.716Z,4.10
2023-05-18T02:31:20.072Z,3.60
2023-05-18T02:33:47.248Z,4.90
2023-05-18T02:36:14.486Z,4.70
2023-05-18T02:38:43.590Z,3.90
2023-05-18T02:41:11.485Z,5.30
2023-05-18T02:43:38.695Z,4.30
2023-05-18T02:48:34.340Z,3.20
2023-05-18T02:51:01.614Z,3.90
2023-05-18T02:53:28.749Z,4.30
2023-05-18T02:56:03.535Z,4.00
2023-05-18T02:58:50.964Z,4.50
2023-05-18T03:01:22.671Z,4.10
2023-05-18T03:03:53.321Z,3.90
2023-05-18T03:06:26.918Z,5.90
2023-05-18T03:08:54.812Z,4.30
2023-05-18T03:11:24.097Z,4.00
2023-05-18T03:13:51.426Z,4.70
2023-05-18T03:16:19.032Z,6.40
2023-05-18T03:18:47.079Z,4.60
2023-05-18T03:21:14.323Z,7.20
2023-05-18T03:23:41.731Z,5.70
2023-05-18T03:26:11.833Z,4.80
2023-05-18T03:28:39.391Z,4.90
2023-05-18T03:31:06.905Z,5.80
2023-05-18T03:33:34.101Z,4.00
2023-05-18T03:36:03.688Z,6.60
2023-05-18T03:38:31.604Z,4.70
2023-05-18T03:41:03.087Z,3.70
2023-05-18T03:43:32.771Z,4.80
2023-05-18T03:46:01.056Z,3.90
2023-05-18T03:48:28.340Z,4.00
2023-05-18T03:50:55.909Z,5.00
2023-05-18T03:53:23.295Z,4.10
2023-05-18T03:55:51.885Z,4.20
2023-05-18T03:58:22.637Z,4.20
2023-05-18T04:00:49.899Z,4.20
2023-05-18T04:03:17.261Z,4.60
2023-05-18T04:05:44.867Z,3.30
2023-05-18T04:08:14.922Z,3.40
2023-05-18T04:10:43.387Z,4.30
2023-05-18T04:13:11.298Z,3.80
2023-05-18T04:15:38.671Z,5.90
2023-05-18T04:18:05.984Z,3.90
2023-05-18T04:20:33.242Z,4.20
2023-05-18T04:23:01.527Z,4.50
2023-05-18T04:25:29.009Z,3.60
2023-05-18T04:27:56.821Z,4.30
2023-05-18T04:30:27.018Z,5.50
2023-05-18T04:32:54.860Z,4.40
2023-05-18T04:35:22.275Z,5.00
2023-05-18T04:37:49.968Z,6.20
2023-05-18T04:40:18.192Z,4.20
2023-05-18T04:42:48.692Z,4.60
2023-05-18T04:45:34.565Z,4.50
2023-05-18T04:48:02.307Z,3.80
2023-05-18T04:55:28.631Z,3.30
2023-05-18T04:58:00.578Z,4.20
2023-05-18T05:00:29.417Z,4.00
2023-05-18T05:02:57.186Z,4.60
2023-05-18T05:07:52.721Z,6.70
2023-05-18T05:10:20.933Z,5.80
2023-05-18T05:12:49.938Z,4.50
2023-05-18T05:15:18.029Z,4.80
2023-05-18T05:17:47.260Z,6.50
2023-05-18T05:20:14.578Z,5.30
2023-05-18T05:22:42.611Z,5.20
2023-05-18T05:25:11.688Z,4.60
2023-05-18T05:27:39.690Z,5.20
2023-05-18T05:30:07.697Z,4.40
2023-05-18T05:32:36.988Z,4.20
2023-05-18T05:35:06.545Z,5.60
2023-05-18T05:37:35.102Z,4.80
2023-05-18T05:40:02.265Z,4.50
2023-05-18T05:42:32.828Z,4.70
2023-05-18T05:45:00.151Z,4.70
2023-05-18T05:47:28.257Z,4.50
2023-05-18T05:52:22.949Z,5.50
2023-05-18T05:54:51.302Z,4.00
2023-05-18T05:57:18.884Z,4.90
2023-05-18T05:59:46.186Z,5.90
2023-05-18T06:02:15.188Z,4.90
2023-05-18T06:04:42.421Z,4.20
2023-05-18T06:07:09.957Z,5.60
2023-05-18T06:09:37.514Z,4.80
2023-05-18T06:12:05.129Z,6.40
2023-05-18T06:14:34.043Z,6.40
2023-05-18T06:17:01.486Z,4.40
2023-05-18T06:19:28.636Z,4.70
2023-05-18T06:21:56.029Z,3.90
2023-05-18T06:24:25.456Z,3.80
2023-05-18T06:27:16.991Z,3.40
2023-05-18T06:29:53.263Z,7.00
2023-05-18T06:32:46.746Z,3.20
2023-05-18T06:35:13.936Z,3.50
2023-05-18T06:37:41.221Z,2.90
2023-05-18T06:40:09.492Z,2.80
2023-05-18T06:42:36.826Z,2.70
2023-05-18T06:45:24.051Z,4.90
2023-05-18T06:47:54.207Z,2.80
2023-05-18T06:50:21.621Z,2.60
2023-05-18T06:52:48.900Z,3.10
2023-05-18T06:55:16.346Z,3.80
2023-05-18T06:57:43.628Z,5.70
2023-05-18T07:00:12.712Z,6.00
2023-05-18T07:02:41.386Z,2.20
2023-05-18T07:05:09.464Z,3.90
2023-05-18T07:07:37.999Z,2.60
2023-05-18T07:10:06.185Z,3.20
2023-05-18T07:12:33.417Z,3.30
2023-05-18T07:15:00.680Z,2.30
2023-05-18T07:17:27.942Z,1.90
2023-05-18T07:19:55.062Z,1.90
2023-05-18T07:22:22.355Z,2.30
2023-05-18T07:24:49.506Z,1.60
2023-05-18T07:27:16.578Z,1.90
2023-05-18T07:29:43.953Z,2.00
2023-05-18T07:32:11.202Z,1.90
2023-05-18T07:34:38.616Z,1.90
2023-05-18T07:37:06.030Z,2.40
2023-05-18T07:39:33.136Z,2.00
2023-05-18T07:42:00.277Z,5.10
2023-05-18T07:44:27.452Z,2.20
2023-05-18T07:46:54.682Z,2.40
2023-05-18T07:49:23.521Z,2.10
2023-05-18T07:51:51.369Z,2.10
2023-05-18T07:56:45.483Z,3.30
2023-05-18T07:59:12.696Z,2.30
2023-05-18T08:01:40.990Z,2.30
2023-05-18T08:04:08.284Z,3.00
2023-05-18T08:06:35.473Z,2.30
2023-05-18T08:09:02.609Z,2.00
2023-05-18T08:11:29.789Z,2.80
2023-05-18T08:13:57.016Z,2.90
2023-05-18T08:16:24.184Z,2.80
2023-05-18T08:18:51.448Z,2.30
2023-05-18T08:21:18.727Z,3.00
2023-05-18T08:23:46.955Z,6.40
2023-05-18T08:26:14.438Z,2.60
2023-05-18T08:28:42.230Z,2.70
2023-05-18T08:31:09.384Z,3.30
2023-05-18T08:33:36.640Z,2.50
2023-05-18T08:36:04.173Z,2.70
2023-05-18T08:38:32.309Z,2.80
2023-05-18T08:41:06.314Z,2.60
2023-05-18T08:43:33.605Z,3.00
2023-05-18T08:46:26.935Z,3.30
2023-05-18T08:48:54.333Z,3.10
2023-05-18T08:51:22.019Z,2.90
2023-05-18T08:53:53.053Z,4.10
2023-05-18T08:56:23.897Z,2.80
2023-05-18T08:58:53.777Z,3.20
2023-05-18T09:01:21.277Z,3.20
2023-05-18T09:03:51.314Z,2.80
2023-05-18T09:06:18.672Z,3.70
2023-05-18T09:08:45.808Z,2.50
2023-05-18T09:11:13.282Z,4.40
2023-05-18T09:13:40.485Z,2.60
2023-05-18T09:16:08.368Z,2.60
2023-05-18T09:18:35.947Z,2.80
2023-05-18T09:21:03.083Z,2.60
2023-05-18T09:23:30.861Z,4.00
2023-05-18T09:28:37.861Z,4.00
2023-05-18T09:31:07.954Z,2.90
2023-05-18T09:33:39.486Z,2.90
2023-05-18T09:36:07.904Z,2.70
2023-05-18T09:38:38.756Z,3.30
2023-05-18T09:41:10.517Z,5.00
2023-05-18T09:43:37.708Z,3.60
2023-05-18T09:46:08.456Z,3.70
2023-05-18T09:48:37.358Z,3.80
2023-05-18T09:51:06.908Z,4.00
2023-05-18T09:53:39.981Z,3.40
2023-05-18T09:56:11.522Z,4.10
2023-05-18T09:58:39.630Z,4.80
2023-05-18T10:01:07.334Z,3.60
2023-05-18T10:06:05.777Z,3.60
2023-05-18T10:08:33.876Z,4.00
2023-05-18T10:11:01.185Z,3.60
2023-05-18T10:13:29.173Z,4.40
2023-05-18T10:15:57.124Z,3.60
2023-05-18T10:18:28.464Z,4.10
2023-05-18T10:20:59.188Z,3.70
2023-05-18T10:23:30.533Z,3.90
2023-05-18T10:25:58.281Z,4.10
2023-05-18T10:30:59.177Z,4.30
2023-05-18T10:33:29.438Z,4.10
2023-05-18T10:35:57.462Z,4.30
2023-05-18T10:38:28.398Z,4.30
2023-05-18T10:40:56.745Z,3.90
2023-05-18T10:43:27.671Z,4.00
2023-05-18T10:45:59.276Z,4.20
2023-05-18T10:48:27.280Z,5.30
2023-05-18T10:53:33.714Z,4.10
2023-05-18T10:56:01.852Z,4.00
2023-05-18T10:58:30.018Z,5.50
2023-05-18T11:01:01.683Z,3.70
2023-05-18T11:03:29.067Z,3.50
2023-05-18T11:06:07.185Z,4.00
2023-05-18T11:08:34.829Z,3.80
2023-05-18T11:13:31.602Z,3.70
2023-05-18T11:16:01.687Z,3.40
2023-05-18T11:18:36.277Z,4.10
2023-05-18T11:21:03.568Z,4.10
2023-05-18T11:23:33.716Z,3.60
2023-05-18T11:26:03.301Z,4.40
2023-05-18T11:28:31.200Z,4.10
2023-05-18T11:30:58.449Z,4.50
2023-05-18T11:33:30.895Z,4.10
2023-05-18T11:36:01.301Z,4.50
2023-05-18T11:38:52.968Z,5.50
2023-05-18T11:41:47.781Z,4.60
2023-05-18T11:44:16.605Z,5.50
2023-05-18T11:46:54.004Z,4.50
2023-05-18T11:49:23.808Z,4.80
2023-05-18T11:51:58.896Z,4.20
2023-05-18T11:54:26.714Z,4.60
2023-05-18T11:56:53.940Z,4.40
2023-05-18T11:59:36.578Z,4.60
2023-05-18T12:02:04.535Z,5.60
2023-05-18T12:04:33.772Z,5.30
2023-05-18T12:07:04.465Z,5.10
2023-05-18T12:09:32.301Z,5.00
2023-05-18T12:11:59.660Z,5.20
2023-05-18T12:14:26.914Z,8.00
2023-05-18T12:16:54.367Z,5.00
2023-05-18T12:19:23.719Z,5.40
2023-05-18T12:21:50.967Z,4.90
2023-05-18T12:24:18.110Z,5.20
2023-05-18T12:26:46.882Z,4.70
2023-05-18T12:29:20.374Z,4.50
2023-05-18T12:31:48.245Z,4.90
2023-05-18T12:34:15.575Z,4.40
2023-05-18T12:36:51.867Z,4.30
2023-05-18T12:39:19.277Z,4.50
2023-05-18T12:41:46.325Z,4.80
2023-05-18T12:44:14.406Z,4.60
2023-05-18T12:46:42.090Z,4.20
2023-05-18T12:51:37.905Z,4.60
2023-05-18T12:54:08.183Z,4.30
2023-05-18T12:56:52.844Z,4.70
2023-05-18T12:59:20.473Z,4.60
2023-05-18T13:01:47.763Z,4.30
2023-05-18T13:04:15.202Z,4.40
2023-05-18T13:11:40.534Z,3.80
2023-05-18T13:14:08.455Z,4.10
2023-05-18T13:16:38.361Z,5.20
2023-05-18T13:19:10.041Z,4.30
2023-05-18T13:21:37.587Z,4.30
2023-05-18T13:24:05.341Z,5.20
2023-05-18T13:26:33.215Z,4.90
2023-05-18T13:29:00.582Z,4.30
2023-05-18T13:31:29.916Z,4.40
2023-05-18T13:33:57.572Z,4.80
2023-05-18T13:38:52.549Z,4.30
2023-05-18T13:41:19.840Z,5.00
2023-05-18T13:43:46.987Z,4.80
2023-05-18T13:46:14.141Z,6.60
2023-05-18T13:48:41.482Z,4.40
2023-05-18T13:51:08.664Z,4.60
2023-05-18T13:53:36.562Z,4.50
2023-05-18T13:56:05.566Z,4.20
2023-05-18T13:58:32.674Z,4.20
2023-05-18T14:01:04.171Z,4.60
2023-05-18T14:03:34.314Z,4.50
2023-05-18T14:06:01.481Z,5.00
2023-05-18T14:08:28.562Z,5.60
2023-05-18T14:10:55.778Z,4.80
2023-05-18T14:13:22.952Z,5.20
2023-05-18T14:15:50.108Z,5.00
2023-05-18T14:18:17.281Z,4.40
2023-05-18T14:20:45.024Z,4.20
2023-05-18T14:23:12.129Z,4.20
2023-05-18T14:25:39.536Z,4.30
2023-05-18T14:28:06.968Z,4.30
2023-05-18T14:30:34.022Z,4.70
2023-05-18T14:33:01.642Z,4.10
2023-05-18T14:37:55.759Z,4.40
2023-05-18T14:40:23.100Z,4.30
2023-05-18T14:42:51.584Z,4.40
2023-05-18T14:45:20.896Z,4.10
2023-05-18T14:47:48.335Z,3.70
2023-05-18T14:50:15.510Z,4.60
2023-05-18T14:52:42.922Z,4.00
2023-05-18T14:55:10.149Z,6.10
2023-05-18T14:57:37.483Z,4.60
2023-05-18T15:00:05.019Z,4.10
2023-05-18T15:02:32.407Z,4.40
2023-05-18T15:07:26.969Z,4.10
2023-05-18T15:09:55.526Z,4.20
2023-05-18T15:12:23.630Z,4.40
2023-05-18T15:14:50.867Z,3.90
2023-05-18T15:17:18.164Z,4.20
2023-05-18T15:19:45.357Z,3.70
2023-05-18T15:22:12.666Z,4.90
2023-05-18T15:24:40.023Z,4.60
2023-05-18T15:27:07.332Z,4.20
2023-05-18T15:29:35.500Z,4.20
2023-05-18T15:32:02.758Z,4.00
2023-05-18T15:34:33.456Z,4.30
2023-05-18T15:37:01.421Z,4.40
2023-05-18T15:39:29.228Z,4.20
2023-05-18T15:41:56.587Z,4.60
2023-05-18T15:44:23.890Z,4.70
2023-05-18T15:46:51.050Z,3.90
2023-05-18T15:49:19.022Z,4.00
2023-05-18T15:51:46.040Z,4.60
2023-05-18T15:54:13.358Z,3.70
2023-05-18T15:56:41.087Z,4.40
2023-05-18T16:01:36.371Z,3.80
2023-05-18T16:04:03.755Z,4.50
2023-05-18T16:06:30.934Z,4.40
2023-05-18T16:08:58.340Z,5.00
2023-05-18T16:13:57.059Z,4.30
2023-05-18T16:16:25.633Z,4.90
2023-05-18T16:18:53.156Z,8.60
2023-05-18T16:21:20.369Z,5.40
2023-05-18T16:23:47.619Z,4.10
2023-05-18T16:26:14.801Z,6.40
2023-05-18T16:28:42.056Z,5.00
2023-05-18T16:31:11.373Z,4.70
2023-05-18T16:33:38.741Z,5.30
2023-05-18T16:36:06.437Z,4.50
2023-05-18T16:38:37.857Z,6.10
2023-05-18T16:41:05.431Z,5.10
2023-05-18T16:43:32.906Z,5.10
2023-05-18T16:46:00.301Z,5.00
2023-05-18T16:48:27.617Z,4.90
2023-05-18T16:50:54.737Z,4.70
2023-05-18T16:53:21.928Z,4.40
2023-05-18T16:55:49.742Z,5.00
2023-05-18T16:58:17.176Z,5.80
2023-05-18T17:00:44.451Z,5.10
2023-05-18T17:03:11.934Z,4.90
2023-05-18T17:05:39.072Z,5.30
2023-05-18T17:08:06.232Z,5.40
2023-05-18T17:10:35.696Z,6.80
2023-05-18T17:13:02.981Z,5.40
2023-05-18T17:15:31.580Z,5.50
2023-05-18T17:17:59.313Z,6.10
2023-05-18T17:20:26.735Z,6.50
2023-05-18T17:22:54.072Z,5.90
2023-05-18T17:25:21.323Z,5.70
2023-05-18T17:27:48.482Z,5.50
2023-05-18T17:30:15.766Z,7.50
2023-05-18T17:32:45.647Z,5.00
2023-05-18T17:35:14.264Z,5.00
2023-05-18T17:37:41.746Z,5.70
2023-05-18T17:40:09.915Z,5.50
2023-05-18T17:42:37.250Z,5.60
2023-05-18T17:45:04.753Z,5.20
2023-05-18T17:47:31.986Z,5.20
2023-05-18T17:49:59.091Z,5.70
2023-05-18T17:52:27.039Z,6.00
2023-05-18T17:54:54.422Z,5.60
2023-05-18T17:57:23.142Z,5.90
2023-05-18T17:59:50.413Z,6.40
2023-05-18T18:02:17.509Z,6.80
2023-05-18T18:04:44.678Z,7.20
2023-05-18T18:07:11.853Z,7.30
2023-05-18T18:09:39.259Z,8.20
2023-05-18T18:12:06.858Z,8.90
2023-05-18T18:14:34.225Z,10.80
2023-05-18T18:17:01.429Z,14.70
2023-05-18T18:19:30.420Z,15.30
2023-05-18T18:21:57.881Z,17.40
2023-05-18T18:24:25.215Z,24.10
2023-05-18T18:26:52.906Z,27.50
2023-05-18T18:31:47.363Z,22.30
2023-05-18T18:34:15.059Z,21.40
2023-05-18T18:36:42.669Z,18.60
2023-05-18T18:39:09.976Z,18.30
2023-05-18T18:41:37.095Z,16.70
2023-05-18T18:44:04.355Z,17.90
2023-05-18T18:46:31.716Z,13.90
2023-05-18T18:48:59.116Z,14.40
2023-05-18T18:51:26.399Z,12.60
2023-05-18T18:53:53.579Z,12.30
2023-05-18T18:56:21.733Z,11.50
2023-05-18T18:58:50.984Z,12.70
2023-05-18T19:01:18.416Z,12.00
2023-05-18T19:03:45.977Z,12.90
2023-05-18T19:06:14.903Z,12.20
2023-05-18T19:08:42.580Z,11.80
2023-05-18T19:11:09.764Z,9.40
2023-05-18T19:13:36.972Z,12.10
2023-05-18T19:16:04.409Z,9.20
2023-05-18T19:18:31.558Z,9.20
2023-05-18T19:21:01.585Z,7.50
2023-05-18T19:23:28.799Z,9.50
2023-05-18T19:25:56.057Z,9.70
2023-05-18T19:28:23.261Z,7.80
2023-05-18T19:30:50.465Z,8.30
2023-05-18T19:33:17.583Z,7.50
2023-05-18T19:35:44.997Z,8.40
2023-05-18T19:38:12.211Z,7.90
2023-05-18T19:40:39.482Z,10.10
2023-05-18T19:43:06.633Z,7.00
2023-05-18T19:45:34.241Z,7.50
2023-05-18T19:48:01.890Z,10.00
2023-05-18T19:50:29.075Z,9.90
2023-05-18T19:52:56.188Z,11.20
2023-05-18T19:55:23.223Z,7.50
2023-05-18T19:57:50.614Z,6.90
2023-05-18T20:00:17.962Z,7.10
2023-05-18T20:02:45.092Z,8.30
2023-05-18T20:05:13.357Z,8.10
2023-05-18T20:07:41.176Z,9.50
2023-05-18T20:10:08.180Z,8.80
2023-05-18T20:12:35.552Z,8.10
2023-05-18T20:15:02.811Z,10.60
2023-05-18T20:17:29.935Z,7.60
2023-05-18T20:19:57.185Z,8.40
2023-05-18T20:22:24.443Z,8.50
2023-05-18T20:24:51.679Z,11.30
2023-05-18T20:27:19.032Z,11.00
2023-05-18T20:29:46.751Z,9.40
2023-05-18T20:32:13.826Z,9.40
2023-05-18T20:34:41.638Z,10.80
2023-05-18T20:37:10.912Z,12.40
2023-05-18T20:39:40.110Z,9.00
2023-05-18T20:42:08.059Z,10.60
2023-05-18T20:44:35.349Z,10.40
2023-05-18T20:47:02.829Z,8.70
2023-05-18T20:49:30.157Z,9.80
2023-05-18T20:51:57.270Z,9.00
2023-05-18T20:54:24.304Z,9.00
2023-05-18T20:56:51.603Z,8.60
2023-05-18T20:59:19.262Z,10.00
2023-05-18T21:01:46.520Z,9.10
2023-05-18T21:04:14.271Z,8.50
2023-05-18T21:06:44.161Z,8.50
2023-05-18T21:09:12.027Z,8.90
2023-05-18T21:11:39.135Z,7.90
2023-05-18T21:14:06.335Z,8.10
2023-05-18T21:16:33.933Z,11.60
2023-05-18T21:19:01.696Z,7.90
2023-05-18T21:21:28.848Z,7.60
2023-05-18T21:23:56.177Z,8.10
2023-05-18T21:26:23.487Z,8.00
2023-05-18T21:28:50.947Z,7.80
2023-05-18T21:31:18.209Z,7.50
2023-05-18T21:33:48.508Z,8.20
2023-05-18T21:36:15.784Z,7.70
2023-05-18T21:38:43.146Z,7.90
2023-05-18T21:41:10.494Z,7.10
2023-05-18T21:43:37.685Z,8.40
2023-05-18T21:46:05.912Z,8.10
2023-05-18T21:48:34.372Z,7.60
2023-05-18T21:51:01.930Z,8.00
2023-05-18T21:53:29.123Z,8.80
2023-05-18T21:55:56.407Z,8.30
2023-05-18T21:58:24.750Z,7.80
2023-05-18T22:00:51.882Z,7.40
2023-05-18T22:03:19.203Z,7.70
2023-05-18T22:05:46.506Z,7.50
2023-05-18T22:08:13.554Z,7.10
2023-05-18T22:10:40.652Z,7.80
2023-05-18T22:13:07.832Z,7.90
2023-05-18T22:15:37.394Z,7.20
2023-05-18T22:18:04.992Z,7.50
2023-05-18T22:20:32.799Z,8.50
2023-05-18T22:23:00.279Z,7.20
2023-05-18T22:25:27.447Z,7.90
2023-05-18T22:27:54.790Z,10.20
2023-05-18T22:30:24.025Z,7.90
2023-05-18T22:32:52.055Z,7.60
2023-05-18T22:35:19.236Z,9.50
2023-05-18T22:37:46.664Z,10.00
2023-05-18T22:40:13.913Z,7.60
2023-05-18T22:42:41.201Z,10.20
2023-05-18T22:45:09.705Z,8.60
2023-05-18T22:47:39.024Z,7.20
2023-05-18T22:50:07.248Z,7.30
2023-05-18T22:52:35.145Z,7.80
2023-05-18T22:57:29.599Z,7.40
2023-05-18T22:59:56.724Z,7.60
2023-05-18T23:02:23.846Z,7.20
2023-05-18T23:04:50.986Z,8.10
2023-05-18T23:10:35.238Z,8.00
2023-05-18T23:13:02.669Z,8.10
2023-05-18T23:15:30.562Z,8.00
2023-05-18T23:17:57.473Z,7.80
2023-05-18T23:20:24.942Z,8.20
2023-05-18T23:22:51.887Z,6.80
2023-05-18T23:25:19.387Z,8.10
2023-05-18T23:27:46.477Z,6.60
2023-05-18T23:30:13.240Z,7.30
2023-05-18T23:32:41.892Z,7.40
2023-05-18T23:35:11.914Z,8.40
2023-05-18T23:37:41.511Z,7.70
2023-05-18T23:40:12.173Z,9.40
2023-05-18T23:42:39.329Z,7.20
2023-05-18T23:45:06.954Z,8.90
2023-05-18T23:47:34.334Z,7.00
2023-05-18T23:50:01.739Z,7.60
2023-05-18T23:52:29.625Z,7.20
2023-05-18T23:54:58.223Z,7.20
2023-05-18T23:57:25.471Z,6.80
2023-05-18T23:59:52.487Z,7.40
